Etusivu
METAR-TAF:

METAR-TAF

Lentoasemat :

Valencian lentoasema

Valencia, Espanja

Leveyspiiri: 39-30N, Pituuspiiri: 000-28W, korkeus merenpinnasta: 69 m

Tämänhetkinen sää

Tämä raportti tehtiin 36 minuuttia sitten, kello 03.00 UTC
Tuuli 8 kn luoteesta
Lämpötila 7°C
Kosteus 61%
Ilmanpaine 1016 hPa
Näkyvyys 10 km tai enemmän
ei pilviä alle 1500 m:ssä eikä cumulonimbus-pilviä

METAR: LEVC 190300Z 31008KT CAVOK 07/M00 Q1016 NOSIG

Aika: 04:36 (03:36 UTC)

Sääennuste

Tämä raportti tehtiin 4 tuntia ja 36 minuuttia sitten, kello 23.00 UTC
Ennuste voimassa 19. päivästä klo 00 UTC - 19. päivään klo 24 UTC
Tuuli 6 kn lännestä/luoteesta
Näkyvyys 10 km tai enemmän
ei pilviä alle 1500 m:ssä eikä cumulonimbus-pilviä
Ajoittain
19. päivästä klo 15 UTC - 19. päivään klo 18 UTC
Tuuli 10 kn kaakosta

TAF: LEVC 182300Z 1900/1924 29006KT CAVOK TX16/1913Z TN03/1907Z TEMPO 1915/1918 13010KT

Säähavainnot ja -ennusteet yli 4000 lentoasemalta (METAR- ja TAF-raportit).

Käytössä olevat sääasemat on merkitty karttaan keltaisilla ja punaisilla pisteillä.

Aseta hiiri pisteen päälle nähdäksesi sääaseman nimen.

Klikkaa sitten nähdäksesi säähavainnot ja -ennusteet.

Kartan vaihtaminen: klikkaa mustalla rastilla varustettuja vihreitä pisteitä, niin voit zoomata sisään; viivalla varustettua vihreää pistettä, niin voit zoomata ulos tai vihreitä nuolia, niin pääset viereisille kartoille.


METAR-TAF: